createdAt,value
2023-03-22T00:00:21.038Z,12.68
2023-03-22T00:03:24.930Z,12.97
2023-03-22T00:09:29.418Z,10.70
2023-03-22T00:12:32.096Z,11.15
2023-03-22T00:15:35.134Z,11.90
2023-03-22T00:18:37.948Z,12.37
2023-03-22T00:21:40.667Z,11.55
2023-03-22T00:24:43.521Z,11.82
2023-03-22T00:27:46.205Z,11.73
2023-03-22T00:34:02.030Z,14.37
2023-03-22T00:37:04.987Z,15.95
2023-03-22T00:40:11.146Z,14.43
2023-03-22T00:43:14.429Z,17.00
2023-03-22T00:46:19.553Z,11.15
2023-03-22T00:49:22.369Z,12.10
2023-03-22T00:52:25.517Z,11.98
2023-03-22T00:55:28.200Z,12.93
2023-03-22T00:58:31.047Z,12.20
2023-03-22T01:01:33.733Z,12.10
2023-03-22T01:04:36.739Z,11.70
2023-03-22T01:07:41.779Z,14.40
2023-03-22T01:10:45.036Z,15.23
2023-03-22T01:13:48.160Z,12.30
2023-03-22T01:19:52.725Z,12.40
2023-03-22T01:22:55.655Z,12.60
2023-03-22T01:25:58.372Z,11.57
2023-03-22T01:29:01.110Z,11.45
2023-03-22T01:32:04.399Z,11.88
2023-03-22T01:35:07.482Z,11.90
2023-03-22T01:38:10.327Z,11.52
2023-03-22T01:41:12.977Z,10.23
2023-03-22T01:47:19.877Z,9.55
2023-03-22T01:50:24.624Z,9.60
2023-03-22T01:53:27.503Z,9.82
2023-03-22T01:56:33.293Z,7.90
2023-03-22T01:59:36.831Z,8.00
2023-03-22T02:02:39.743Z,9.25
2023-03-22T02:08:43.967Z,9.75
2023-03-22T02:11:51.538Z,8.18
2023-03-22T02:15:05.422Z,8.75
2023-03-22T02:18:45.803Z,8.13
2023-03-22T02:22:10.030Z,7.30
2023-03-22T02:25:42.067Z,7.78
2023-03-22T02:29:03.767Z,7.45
2023-03-22T02:32:25.657Z,9.45
2023-03-22T02:35:33.918Z,9.90
2023-03-22T02:39:10.585Z,8.43
2023-03-22T02:42:23.567Z,9.18
2023-03-22T02:45:35.223Z,8.60
2023-03-22T02:48:56.345Z,8.40
2023-03-22T02:52:04.045Z,8.43
2023-03-22T02:58:35.172Z,8.40
2023-03-22T03:01:41.433Z,8.90
2023-03-22T03:04:47.163Z,10.60
2023-03-22T03:07:56.252Z,9.43
2023-03-22T03:14:00.577Z,10.13
2023-03-22T03:17:37.222Z,9.75
2023-03-22T03:21:08.926Z,9.70
2023-03-22T03:24:27.746Z,9.40
2023-03-22T03:27:40.439Z,9.80
2023-03-22T03:34:00.488Z,9.80
2023-03-22T03:37:12.369Z,8.77
2023-03-22T03:40:22.229Z,8.45
2023-03-22T03:43:25.924Z,8.83
2023-03-22T03:46:29.540Z,10.13
2023-03-22T03:49:32.639Z,10.27
2023-03-22T03:52:35.909Z,11.30
2023-03-22T03:55:38.704Z,12.93
2023-03-22T03:58:41.735Z,12.90
2023-03-22T04:01:52.832Z,13.82
2023-03-22T04:04:55.856Z,13.77
2023-03-22T04:07:58.537Z,14.50
2023-03-22T04:14:06.209Z,13.10
2023-03-22T04:20:12.950Z,14.98
2023-03-22T04:23:16.368Z,14.00
2023-03-22T04:26:19.085Z,13.68
2023-03-22T04:29:23.114Z,16.07
2023-03-22T04:32:25.794Z,13.45
2023-03-22T04:35:28.371Z,15.13
2023-03-22T04:38:31.192Z,12.50
2023-03-22T04:41:34.978Z,11.80
2023-03-22T04:44:38.418Z,12.30
2023-03-22T04:47:41.261Z,10.93
2023-03-22T04:50:44.047Z,12.23
2023-03-22T04:53:47.235Z,11.55
2023-03-22T04:56:50.751Z,12.07
2023-03-22T04:59:53.492Z,11.57
2023-03-22T05:02:57.422Z,10.82
2023-03-22T05:06:02.105Z,10.20
2023-03-22T05:09:04.953Z,10.25
2023-03-22T05:12:07.890Z,8.57
2023-03-22T05:15:10.761Z,8.87
2023-03-22T05:18:14.601Z,8.30
2023-03-22T05:24:24.197Z,8.73
2023-03-22T05:27:31.858Z,8.15
2023-03-22T05:30:34.548Z,8.87
2023-03-22T05:33:37.307Z,7.43
2023-03-22T05:36:40.004Z,8.02
2023-03-22T05:39:42.807Z,6.43
2023-03-22T05:42:45.943Z,7.30
2023-03-22T05:48:51.488Z,6.22
2023-03-22T05:51:54.688Z,6.35
2023-03-22T06:01:09.352Z,7.43
2023-03-22T06:04:11.982Z,6.97
2023-03-22T06:10:17.258Z,7.70
2023-03-22T06:13:20.746Z,7.62
2023-03-22T06:16:23.600Z,7.77
2023-03-22T06:19:27.051Z,7.95
2023-03-22T06:22:31.922Z,7.07
2023-03-22T06:25:34.722Z,8.20
2023-03-22T06:28:38.168Z,6.87
2023-03-22T06:31:41.185Z,7.50
2023-03-22T06:34:44.281Z,7.90
2023-03-22T06:37:47.131Z,7.55
2023-03-22T06:40:49.855Z,7.20
2023-03-22T06:43:52.732Z,6.60
2023-03-22T06:46:55.654Z,7.57
2023-03-22T06:49:58.479Z,8.07
2023-03-22T06:53:01.444Z,7.60
2023-03-22T06:56:04.735Z,7.57
2023-03-22T06:59:07.528Z,7.43
2023-03-22T07:02:14.048Z,8.60
2023-03-22T07:05:16.745Z,8.18
2023-03-22T07:08:19.715Z,7.80
2023-03-22T07:11:22.748Z,7.20
2023-03-22T07:14:30.429Z,7.18
2023-03-22T07:17:33.533Z,6.67
2023-03-22T07:20:41.735Z,6.10
2023-03-22T07:23:44.668Z,6.45
2023-03-22T07:26:47.387Z,6.25
2023-03-22T07:29:50.099Z,7.07
2023-03-22T07:32:53.167Z,6.50
2023-03-22T07:35:56.099Z,6.82
2023-03-22T07:38:59.223Z,6.35
2023-03-22T07:42:03.725Z,6.68
2023-03-22T07:45:07.092Z,6.55
2023-03-22T07:48:12.110Z,6.80
2023-03-22T07:51:14.760Z,6.55
2023-03-22T07:54:32.082Z,7.18
2023-03-22T07:57:36.077Z,7.07
2023-03-22T08:00:39.083Z,6.70
2023-03-22T08:03:42.020Z,6.40
2023-03-22T08:06:46.685Z,6.40
2023-03-22T08:09:49.741Z,6.55
2023-03-22T08:12:52.402Z,7.15
2023-03-22T08:15:55.218Z,6.40
2023-03-22T08:18:58.937Z,6.57
2023-03-22T08:22:03.931Z,6.30
2023-03-22T08:25:07.501Z,6.45
2023-03-22T08:28:10.920Z,5.90
2023-03-22T08:31:16.092Z,6.28
2023-03-22T08:34:19.217Z,5.30
2023-03-22T08:37:21.961Z,4.90
2023-03-22T08:40:24.555Z,5.00
2023-03-22T08:43:28.233Z,4.93
2023-03-22T08:46:31.256Z,4.68
2023-03-22T08:49:34.826Z,4.37
2023-03-22T08:52:37.838Z,4.25
2023-03-22T08:55:46.632Z,4.70
2023-03-22T08:58:49.605Z,5.00
2023-03-22T09:01:52.475Z,4.93
2023-03-22T09:04:56.367Z,4.80
2023-03-22T09:08:06.075Z,4.50
2023-03-22T09:11:10.629Z,4.75
2023-03-22T09:14:13.524Z,4.82
2023-03-22T09:17:21.246Z,4.00
2023-03-22T09:20:31.969Z,4.13
2023-03-22T09:23:37.259Z,4.30
2023-03-22T09:26:40.128Z,3.87
2023-03-22T09:29:43.011Z,3.22
2023-03-22T09:32:46.208Z,3.30
2023-03-22T09:35:49.372Z,2.70
2023-03-22T09:38:52.348Z,2.87
2023-03-22T09:41:57.984Z,2.62
2023-03-22T09:45:01.982Z,2.95
2023-03-22T09:48:27.218Z,2.80
2023-03-22T09:51:45.219Z,2.93
2023-03-22T09:54:48.257Z,3.40
2023-03-22T09:57:58.956Z,3.10
2023-03-22T10:01:46.279Z,2.85
2023-03-22T10:05:18.343Z,3.35
2023-03-22T10:08:29.771Z,3.40
2023-03-22T10:11:43.815Z,3.50
2023-03-22T10:15:09.327Z,3.17
2023-03-22T10:18:20.911Z,2.97
2023-03-22T10:21:23.732Z,3.10
2023-03-22T10:24:30.615Z,2.83
2023-03-22T10:27:34.653Z,2.87
2023-03-22T10:30:38.830Z,3.30
2023-03-22T10:33:52.954Z,2.83
2023-03-22T10:36:56.257Z,3.50
2023-03-22T10:40:01.242Z,3.97
2023-03-22T10:43:18.390Z,3.15
2023-03-22T10:46:24.819Z,3.25
2023-03-22T10:49:36.283Z,3.60
2023-03-22T10:52:51.622Z,3.53
2023-03-22T10:55:54.756Z,3.50
2023-03-22T10:58:58.471Z,3.40
2023-03-22T11:02:01.978Z,4.00
2023-03-22T11:05:07.376Z,3.12
2023-03-22T11:08:15.119Z,3.70
2023-03-22T11:11:26.348Z,3.97
2023-03-22T11:14:38.242Z,3.53
2023-03-22T11:17:42.750Z,3.75
2023-03-22T11:21:01.587Z,3.90
2023-03-22T11:24:06.055Z,3.20
2023-03-22T11:27:21.598Z,3.60
2023-03-22T11:30:26.273Z,3.42
2023-03-22T11:33:29.312Z,3.70
2023-03-22T11:36:33.237Z,3.97
2023-03-22T11:39:36.163Z,3.60
2023-03-22T11:42:39.551Z,4.10
2023-03-22T11:45:47.327Z,3.72
2023-03-22T11:48:52.379Z,3.62
2023-03-22T11:51:56.576Z,3.37
2023-03-22T11:55:00.436Z,3.90
2023-03-22T11:58:06.277Z,3.93
2023-03-22T12:01:19.924Z,4.00
2023-03-22T12:04:28.088Z,4.05
2023-03-22T12:07:32.283Z,3.65
2023-03-22T12:10:48.344Z,3.95
2023-03-22T12:13:58.855Z,4.17
2023-03-22T12:17:24.538Z,4.40
2023-03-22T12:20:43.017Z,4.40
2023-03-22T12:23:46.078Z,4.07
2023-03-22T12:26:49.514Z,4.25
2023-03-22T12:30:00.168Z,4.17
2023-03-22T12:33:17.302Z,4.12
2023-03-22T12:36:24.170Z,4.50
2023-03-22T12:39:31.647Z,4.10
2023-03-22T12:42:58.988Z,3.65
2023-03-22T12:46:05.070Z,3.13
2023-03-22T12:49:36.070Z,3.30
2023-03-22T12:52:50.941Z,3.80
2023-03-22T12:55:55.754Z,3.90
2023-03-22T12:59:03.988Z,4.22
2023-03-22T13:02:15.078Z,4.40
2023-03-22T13:05:19.307Z,3.80
2023-03-22T13:08:23.100Z,3.95
2023-03-22T13:11:26.483Z,4.20
2023-03-22T13:14:49.747Z,4.07
2023-03-22T13:17:57.049Z,3.93
2023-03-22T13:21:19.308Z,3.80
2023-03-22T13:24:23.382Z,3.85
2023-03-22T13:27:38.091Z,4.45
2023-03-22T13:30:58.215Z,3.65
2023-03-22T13:34:04.276Z,3.70
2023-03-22T13:37:35.166Z,3.42
2023-03-22T13:40:44.276Z,3.25
2023-03-22T13:43:50.449Z,3.25
2023-03-22T13:46:54.110Z,3.62
2023-03-22T13:50:24.321Z,3.43
2023-03-22T13:53:31.119Z,3.30
2023-03-22T13:57:01.362Z,2.90
2023-03-22T14:00:15.558Z,3.60
2023-03-22T14:03:30.438Z,2.50
2023-03-22T14:06:39.327Z,2.73
2023-03-22T14:09:54.816Z,2.40
2023-03-22T14:13:06.357Z,2.60
2023-03-22T14:16:14.283Z,2.40
2023-03-22T14:19:21.819Z,2.55
